New Lyme, Ohio
Current Conditions -  °F | °C
As of 11:53 PM on Sunday 19 Oct 2014 (Local Time) from KHZY Reporting Station
Clear Clear  
Wind Chill: 37°   Ceiling: Unl
Heat Index: 40°   Visibility: 10mi
Dew Point: 36°   Wind: 5mph
Humidity: 86%   Direction: 180°S
Pressure: 30.03"   Gusts: NA
Location:  41.6051°N, 80.867°W
Report Text: KHZY 200353Z AUTO 18004KT 10SM CLR 04/02 A3003 RMK AO2 SLP174 T00440022
Loading
Personal Weather Stations






























Interactive Weather Map
Tropical Storm Tracking
New forecast layout! Learn more

10-Day Weather Forecast

Advertisements
Track Severe Weather on mobile